CBG5 weather

Nanaimo (Regional General Hospital) Heliport
Nanaimo, British Columbia, Canada

Public forecast

Using degrees Celsius for public forecast. Weather courtesy of forecast.io.

METAR (pilot weather report)

Closest report is Nanaimo Airport, 8.8 nm (16.3 km) SSE. Retrieved 2019/07/19 15:00 UTC (30 minutes ago):

CYCD 191500Z 28003KT 230V300 25SM FEW020 14/09 A3011 RMK SC1 SLP197

TAF (pilot weather forecast)

Closest forecast is Nanaimo Airport, 8.8 nm (16.3 km) SSE. Retrieved 2019/07/19 15:42 UTC (0 seconds ago):

TAF CYCD 191438Z 1915/2003 VRB03KT P6SM FEW012 FEW080 FM191900 03007KT P6SM SCT040 BKN080 TEMPO 1919/2003 BKN040 BECMG 2001/2003 VRB03KT RMK NXT FCST BY 191800Z